Castle Rock, Colorado
Current Conditions -  °F | °C
As of 7:53 AM on Saturday 20 Dec 2014 (Local Time) from KAPA Reporting Station
Broken Clouds Broken Clouds  
Wind Chill: 31°   Ceiling: 13000
Heat Index: 38°   Visibility: 10mi
Dew Point: 19°   Wind: 10mph
Humidity: 47%   Direction: 210°SSW
Pressure: 29.98"   Gusts: NA
Location:  39.38°N, 104.85°W
Report Text: KAPA 201453Z 21009KT 10SM FEW090 BKN130 BKN200 03/M07 A2998 RMK AO2 SLP169 T00331072 50000
Loading
Personal Weather Stations






























Interactive Weather Map New forecast layout! Learn more

10-Day Weather Forecast

Advertisements
Track Severe Weather on mobile